createdAt,value
2019-03-03T00:01:01.206Z,18.60
2019-03-03T00:03:30.623Z,20.43
2019-03-03T00:06:00.077Z,17.57
2019-03-03T00:08:29.544Z,14.60
2019-03-03T00:10:59.020Z,14.17
2019-03-03T00:13:28.447Z,17.83
2019-03-03T00:15:57.906Z,15.27
2019-03-03T00:18:27.405Z,19.07
2019-03-03T00:20:56.828Z,17.40
2019-03-03T00:23:26.332Z,12.73
2019-03-03T00:26:08.599Z,11.17
2019-03-03T00:28:38.087Z,15.53
2019-03-03T00:31:07.564Z,13.20
2019-03-03T00:33:37.054Z,12.37
2019-03-03T00:36:06.561Z,14.27
2019-03-03T00:38:37.606Z,14.57
2019-03-03T00:41:08.627Z,13.33
2019-03-03T00:43:39.643Z,13.83
2019-03-03T00:46:10.728Z,12.00
2019-03-03T00:48:41.767Z,10.13
2019-03-03T00:51:12.846Z,13.27
2019-03-03T00:53:43.887Z,14.13
2019-03-03T00:56:14.899Z,13.53
2019-03-03T00:58:44.641Z,14.40
2019-03-03T01:01:16.085Z,10.57
2019-03-03T01:03:47.197Z,9.87
2019-03-03T01:06:18.239Z,9.80
2019-03-03T01:08:49.252Z,16.67
2019-03-03T01:11:21.881Z,11.13
2019-03-03T01:14:05.606Z,13.80
2019-03-03T01:16:36.656Z,16.57
2019-03-03T01:19:07.695Z,17.03
2019-03-03T01:21:38.685Z,11.10
2019-03-03T01:24:10.805Z,10.97
2019-03-03T01:26:40.227Z,15.47
2019-03-03T01:29:09.668Z,10.17
2019-03-03T01:31:39.214Z,12.40
2019-03-03T01:34:08.722Z,13.07
2019-03-03T01:36:38.233Z,15.43
2019-03-03T01:39:08.039Z,10.03
2019-03-03T01:41:37.449Z,15.37
2019-03-03T01:44:06.893Z,13.03
2019-03-03T01:46:36.377Z,10.83
2019-03-03T01:49:05.869Z,13.53
2019-03-03T01:51:35.298Z,9.97
2019-03-03T01:54:04.714Z,11.60
2019-03-03T01:56:34.203Z,13.17
2019-03-03T01:59:03.617Z,10.67
2019-03-03T02:01:33.170Z,12.10
2019-03-03T02:04:02.590Z,10.57
2019-03-03T02:06:32.093Z,13.67
2019-03-03T02:09:01.499Z,13.20
2019-03-03T02:11:30.904Z,20.70
2019-03-03T02:14:00.332Z,13.80
2019-03-03T02:16:31.378Z,11.37
2019-03-03T02:19:00.866Z,15.83
2019-03-03T02:21:31.887Z,17.57
2019-03-03T02:24:01.303Z,12.63
2019-03-03T02:26:30.790Z,12.37
2019-03-03T02:29:00.213Z,17.57
2019-03-03T02:31:29.660Z,14.50
2019-03-03T02:33:59.277Z,14.53
2019-03-03T02:36:28.739Z,15.07
2019-03-03T02:38:58.123Z,14.10
2019-03-03T02:41:27.585Z,15.43
2019-03-03T02:43:57.029Z,20.80
2019-03-03T02:46:26.477Z,13.80
2019-03-03T02:48:56.027Z,16.30
2019-03-03T02:51:25.467Z,12.87
2019-03-03T02:53:54.893Z,15.10
2019-03-03T02:56:24.354Z,18.50
2019-03-03T02:58:53.782Z,13.50
2019-03-03T03:01:24.838Z,13.20
2019-03-03T03:03:54.306Z,14.53
2019-03-03T03:06:25.342Z,12.77
2019-03-03T03:08:56.353Z,13.93
2019-03-03T03:11:27.371Z,17.27
2019-03-03T03:13:58.370Z,16.43
2019-03-03T03:16:29.399Z,16.57
2019-03-03T03:19:00.397Z,16.53
2019-03-03T03:21:31.847Z,18.07
2019-03-03T03:24:02.834Z,12.23
2019-03-03T03:26:34.113Z,16.67
2019-03-03T03:29:05.120Z,13.07
2019-03-03T03:31:36.126Z,16.50
2019-03-03T03:34:07.151Z,15.13
2019-03-03T03:36:38.206Z,17.07
2019-03-03T03:39:09.258Z,14.87
2019-03-03T03:41:40.291Z,12.97
2019-03-03T03:44:11.284Z,14.77
2019-03-03T03:46:42.292Z,16.43
2019-03-03T03:49:13.308Z,21.43
2019-03-03T03:51:44.311Z,17.33
2019-03-03T03:54:15.349Z,17.40
2019-03-03T03:56:46.419Z,15.80
2019-03-03T03:59:17.484Z,19.53
2019-03-03T04:01:48.521Z,21.17
2019-03-03T04:04:19.517Z,27.60
2019-03-03T04:06:50.554Z,21.70
2019-03-03T04:09:21.548Z,21.23
2019-03-03T04:11:52.586Z,16.60
2019-03-03T04:14:23.610Z,27.37
2019-03-03T04:16:54.618Z,20.27
2019-03-03T04:19:25.646Z,27.70
2019-03-03T04:21:56.683Z,26.40
2019-03-03T04:24:27.746Z,24.73
2019-03-03T04:27:00.000Z,30.50
2019-03-03T04:29:31.015Z,25.20
2019-03-03T04:32:02.461Z,23.00
2019-03-03T04:34:33.449Z,28.13
2019-03-03T04:37:04.485Z,22.20
2019-03-03T04:39:35.662Z,23.70
2019-03-03T04:42:06.631Z,23.20
2019-03-03T04:44:37.640Z,22.27
2019-03-03T04:47:08.659Z,25.33
2019-03-03T04:49:39.768Z,22.83
2019-03-03T04:52:10.836Z,20.37
2019-03-03T04:54:41.903Z,24.37
2019-03-03T04:57:12.929Z,18.83
2019-03-03T04:59:44.319Z,18.17
2019-03-03T05:02:15.301Z,18.50
2019-03-03T05:04:46.315Z,18.23
2019-03-03T05:07:17.307Z,17.17
2019-03-03T05:09:48.327Z,26.57
2019-03-03T05:12:19.325Z,21.20
2019-03-03T05:14:50.412Z,20.53
2019-03-03T05:17:21.459Z,17.57
2019-03-03T05:19:52.446Z,20.10
2019-03-03T05:22:23.303Z,19.27
2019-03-03T05:24:52.683Z,16.53
2019-03-03T05:27:22.196Z,21.60
2019-03-03T05:29:51.645Z,16.60
2019-03-03T05:32:21.058Z,18.30
2019-03-03T05:34:50.519Z,17.87
2019-03-03T05:37:19.957Z,18.57
2019-03-03T05:39:49.367Z,17.60
2019-03-03T05:42:18.811Z,14.87
2019-03-03T05:44:48.220Z,17.60
2019-03-03T05:47:17.670Z,21.70
2019-03-03T05:49:47.079Z,22.63
2019-03-03T05:52:16.540Z,17.23
2019-03-03T05:54:46.088Z,20.37
2019-03-03T05:57:15.486Z,11.73
2019-03-03T05:59:45.039Z,17.23
2019-03-03T06:02:14.529Z,19.97
2019-03-03T06:04:43.966Z,17.27
2019-03-03T06:07:13.418Z,19.03
2019-03-03T06:09:42.925Z,20.90
2019-03-03T06:12:12.405Z,19.77
2019-03-03T06:14:41.851Z,21.87
2019-03-03T06:17:11.332Z,17.33
2019-03-03T06:19:40.737Z,18.20
2019-03-03T06:22:10.153Z,17.93
2019-03-03T06:24:39.568Z,22.80
2019-03-03T06:27:09.103Z,17.47
2019-03-03T06:29:38.640Z,21.43
2019-03-03T06:32:08.064Z,22.83
2019-03-03T06:34:37.572Z,24.07
2019-03-03T06:37:06.996Z,22.83
2019-03-03T06:39:36.434Z,20.90
2019-03-03T06:42:05.858Z,28.77
2019-03-03T06:44:35.401Z,20.33
2019-03-03T06:47:04.812Z,23.93
2019-03-03T06:49:34.238Z,24.40
2019-03-03T06:52:03.710Z,19.60
2019-03-03T06:54:33.186Z,26.93
2019-03-03T06:57:02.634Z,24.33
2019-03-03T06:59:32.032Z,22.67
2019-03-03T07:02:01.562Z,26.53
2019-03-03T07:04:30.985Z,25.77
2019-03-03T07:07:00.468Z,21.40
2019-03-03T07:09:29.928Z,22.60
2019-03-03T07:12:00.914Z,17.47
2019-03-03T07:14:30.434Z,15.97
2019-03-03T07:16:59.965Z,22.60
2019-03-03T07:19:29.407Z,19.87
2019-03-03T07:21:58.811Z,18.53
2019-03-03T07:24:28.374Z,16.87
2019-03-03T07:26:57.803Z,20.10
2019-03-03T07:29:27.261Z,20.13
2019-03-03T07:31:57.001Z,15.70
2019-03-03T07:34:26.419Z,21.57
2019-03-03T07:36:55.879Z,20.03
2019-03-03T07:39:27.664Z,16.93
2019-03-03T07:41:57.202Z,15.93
2019-03-03T07:44:26.635Z,20.07
2019-03-03T07:46:56.049Z,19.73
2019-03-03T07:49:25.539Z,19.27
2019-03-03T07:51:54.948Z,19.47
2019-03-03T07:54:24.390Z,15.37
2019-03-03T07:56:53.904Z,18.93
2019-03-03T07:59:23.808Z,13.57
2019-03-03T08:01:53.279Z,17.43
2019-03-03T08:04:22.793Z,19.67
2019-03-03T08:06:52.267Z,16.47
2019-03-03T08:09:21.657Z,17.53
2019-03-03T08:11:51.134Z,16.20
2019-03-03T08:14:20.582Z,18.27
2019-03-03T08:16:50.019Z,15.57
2019-03-03T08:19:19.450Z,12.83
2019-03-03T08:21:48.915Z,12.03
2019-03-03T08:24:18.390Z,16.20
2019-03-03T08:26:47.806Z,14.37
2019-03-03T08:29:17.314Z,13.27
2019-03-03T08:31:47.455Z,14.77
2019-03-03T08:34:18.439Z,17.97
2019-03-03T08:36:48.168Z,20.33
2019-03-03T08:39:17.588Z,16.43
2019-03-03T08:41:48.623Z,20.43
2019-03-03T08:44:19.625Z,27.20
2019-03-03T08:46:50.672Z,21.33
2019-03-03T08:49:21.736Z,27.77
2019-03-03T08:51:52.775Z,21.77
2019-03-03T08:54:23.766Z,26.70
2019-03-03T08:56:54.773Z,22.43
2019-03-03T08:59:25.881Z,23.80
2019-03-03T09:01:56.912Z,22.83
2019-03-03T09:04:28.004Z,24.90
2019-03-03T09:06:59.041Z,22.67
2019-03-03T09:09:30.046Z,23.60
2019-03-03T09:12:01.110Z,25.20
2019-03-03T09:14:32.528Z,21.80
2019-03-03T09:17:03.640Z,29.37
2019-03-03T09:19:34.669Z,21.23
2019-03-03T09:22:05.709Z,22.87
2019-03-03T09:24:36.769Z,28.20
2019-03-03T09:27:07.884Z,24.40
2019-03-03T09:29:38.986Z,20.07
2019-03-03T09:32:09.992Z,21.50
2019-03-03T09:34:41.090Z,19.63
2019-03-03T09:37:12.133Z,22.43
2019-03-03T09:39:43.225Z,23.07
2019-03-03T09:42:16.452Z,23.47
2019-03-03T09:44:47.631Z,20.00
2019-03-03T09:47:18.670Z,28.03
2019-03-03T09:49:49.690Z,25.90
2019-03-03T09:52:20.723Z,26.93
2019-03-03T09:54:51.761Z,24.80
2019-03-03T09:57:22.758Z,27.23
2019-03-03T09:59:53.774Z,21.87
2019-03-03T10:02:24.803Z,24.20
2019-03-03T10:04:55.888Z,24.60
2019-03-03T10:07:26.909Z,25.20
2019-03-03T10:09:57.915Z,20.87
2019-03-03T10:12:28.953Z,30.20
2019-03-03T10:15:00.003Z,23.03
2019-03-03T10:17:31.048Z,23.13
2019-03-03T10:20:02.106Z,28.77
2019-03-03T10:22:33.155Z,21.57
2019-03-03T10:25:04.201Z,26.03
2019-03-03T10:27:35.246Z,30.90
2019-03-03T10:30:09.454Z,22.47
2019-03-03T10:35:51.390Z,20.50
2019-03-03T10:38:22.447Z,19.30
2019-03-03T10:40:53.476Z,24.87
2019-03-03T10:43:24.498Z,25.73
2019-03-03T10:45:55.563Z,27.17
2019-03-03T10:48:26.620Z,22.43
2019-03-03T10:50:57.678Z,27.17
2019-03-03T10:53:28.756Z,24.97
2019-03-03T10:56:01.865Z,20.10
2019-03-03T10:58:32.967Z,19.73
2019-03-03T11:01:05.576Z,18.70
2019-03-03T11:03:36.580Z,18.97
2019-03-03T11:06:07.619Z,15.77
2019-03-03T11:08:38.662Z,18.20
2019-03-03T11:11:09.719Z,22.27
2019-03-03T11:13:41.304Z,18.80
2019-03-03T11:16:13.882Z,19.00
2019-03-03T11:18:44.920Z,21.17
2019-03-03T11:24:31.910Z,20.23
2019-03-03T11:27:03.099Z,19.47
2019-03-03T11:29:34.096Z,17.40
2019-03-03T11:32:05.091Z,18.43
2019-03-03T11:34:36.185Z,17.53
2019-03-03T11:37:07.329Z,18.17
2019-03-03T11:39:38.385Z,15.63
2019-03-03T11:42:09.470Z,16.63
2019-03-03T11:44:40.514Z,16.03
2019-03-03T11:47:11.560Z,12.50
2019-03-03T11:49:42.685Z,15.67
2019-03-03T11:52:13.678Z,16.20
2019-03-03T11:54:44.719Z,14.70
2019-03-03T11:57:15.787Z,15.57
2019-03-03T11:59:46.777Z,14.80
2019-03-03T12:02:17.842Z,15.47
2019-03-03T12:04:48.860Z,13.37
2019-03-03T12:07:19.899Z,13.27
2019-03-03T12:09:50.924Z,12.30
2019-03-03T12:12:21.935Z,11.93
2019-03-03T12:14:52.968Z,16.83
2019-03-03T12:17:24.061Z,10.20
2019-03-03T12:19:55.110Z,14.07
2019-03-03T12:22:26.159Z,13.43
2019-03-03T12:24:57.223Z,9.90
2019-03-03T12:27:28.265Z,12.63
2019-03-03T12:29:59.271Z,10.37
2019-03-03T12:32:30.313Z,6.87
2019-03-03T12:35:01.390Z,7.03
2019-03-03T12:37:32.493Z,10.60
2019-03-03T12:40:03.506Z,7.63
2019-03-03T12:42:34.486Z,6.17
2019-03-03T12:45:05.517Z,6.03
2019-03-03T12:47:37.113Z,7.30
2019-03-03T12:50:11.750Z,7.13
2019-03-03T12:59:06.994Z,10.33
2019-03-03T13:01:38.068Z,8.53
2019-03-03T13:04:09.173Z,6.13
2019-03-03T13:06:40.171Z,7.90
2019-03-03T13:09:11.226Z,8.37
2019-03-03T13:11:42.289Z,9.30
2019-03-03T13:14:13.341Z,7.90
2019-03-03T13:16:44.393Z,10.43
2019-03-03T13:19:15.411Z,9.43
2019-03-03T13:21:46.439Z,11.07
2019-03-03T13:24:17.467Z,13.13
2019-03-03T13:26:48.541Z,11.07
2019-03-03T13:29:19.565Z,9.10
2019-03-03T13:31:50.573Z,11.50
2019-03-03T13:34:21.611Z,11.70
2019-03-03T13:36:52.673Z,7.90
2019-03-03T13:39:24.324Z,7.80
2019-03-03T13:41:55.366Z,13.57
2019-03-03T13:44:24.815Z,8.70
2019-03-03T13:46:54.214Z,12.27
2019-03-03T13:49:23.852Z,9.37
2019-03-03T13:51:53.269Z,12.67
2019-03-03T13:54:22.772Z,10.77
2019-03-03T13:56:52.267Z,12.47
2019-03-03T13:59:22.116Z,10.90
2019-03-03T14:01:51.592Z,11.03
2019-03-03T14:04:21.077Z,14.37
2019-03-03T14:06:50.579Z,13.80
2019-03-03T14:09:20.040Z,14.03
2019-03-03T14:11:49.487Z,11.93
2019-03-03T14:14:18.990Z,12.40
2019-03-03T14:16:48.427Z,15.43
2019-03-03T14:19:17.848Z,13.13
2019-03-03T14:21:47.296Z,13.87
2019-03-03T14:24:16.708Z,14.97
2019-03-03T14:26:46.246Z,12.60
2019-03-03T14:29:15.715Z,17.83
2019-03-03T14:31:45.176Z,11.97
2019-03-03T14:34:14.671Z,11.37
2019-03-03T14:36:45.719Z,13.87
2019-03-03T14:39:15.576Z,16.00
2019-03-03T14:41:45.046Z,12.93
2019-03-03T14:44:14.526Z,11.77
2019-03-03T14:46:43.953Z,13.43
2019-03-03T14:49:13.454Z,13.17
2019-03-03T14:51:42.921Z,17.90
2019-03-03T14:54:12.428Z,13.90
2019-03-03T14:56:42.767Z,12.20
2019-03-03T14:59:12.274Z,15.80
2019-03-03T15:01:41.707Z,16.67
2019-03-03T15:04:11.162Z,13.93
2019-03-03T15:06:40.590Z,15.47
2019-03-03T15:09:11.587Z,15.03
2019-03-03T15:11:41.010Z,19.03
2019-03-03T15:14:11.495Z,16.17
2019-03-03T15:16:42.555Z,19.13
2019-03-03T15:19:12.011Z,18.53
2019-03-03T15:21:41.471Z,17.67
2019-03-03T15:24:10.926Z,11.77
2019-03-03T15:26:40.406Z,18.53
2019-03-03T15:29:09.926Z,13.93
2019-03-03T15:31:39.397Z,17.83
2019-03-03T15:34:09.841Z,16.90
2019-03-03T15:36:39.384Z,15.80
2019-03-03T15:39:08.799Z,16.63
2019-03-03T15:41:38.335Z,14.40
2019-03-03T15:44:08.088Z,18.30
2019-03-03T15:46:37.508Z,16.37
2019-03-03T15:49:06.943Z,17.20
2019-03-03T15:51:36.360Z,19.33
2019-03-03T15:54:05.815Z,13.53
2019-03-03T15:56:35.279Z,17.43
2019-03-03T15:59:04.762Z,18.70
2019-03-03T16:01:34.274Z,17.63
2019-03-03T16:04:03.674Z,16.67
2019-03-03T16:06:33.190Z,17.83
2019-03-03T16:09:04.525Z,21.60
2019-03-03T16:11:33.927Z,19.47
2019-03-03T16:14:03.395Z,13.40
2019-03-03T16:16:35.965Z,19.00
2019-03-03T16:19:05.393Z,15.60
2019-03-03T16:21:34.841Z,13.20
2019-03-03T16:24:04.339Z,18.33
2019-03-03T16:26:33.859Z,20.33
2019-03-03T16:29:03.345Z,14.40
2019-03-03T16:31:32.849Z,16.33
2019-03-03T16:34:02.382Z,14.13
2019-03-03T16:36:34.664Z,11.37
2019-03-03T16:39:05.256Z,15.80
2019-03-03T16:41:34.743Z,18.17
2019-03-03T16:44:04.183Z,13.70
2019-03-03T16:46:33.664Z,14.27
2019-03-03T16:49:03.116Z,15.50
2019-03-03T16:51:32.605Z,15.27
2019-03-03T16:54:02.093Z,13.10
2019-03-03T16:56:31.521Z,14.13
2019-03-03T16:59:00.976Z,15.03
2019-03-03T17:01:30.450Z,16.43
2019-03-03T17:03:59.982Z,12.50
2019-03-03T17:06:29.461Z,12.20
2019-03-03T17:09:00.521Z,14.83
2019-03-03T17:11:29.961Z,17.53
2019-03-03T17:13:59.372Z,14.23
2019-03-03T17:16:28.841Z,15.33
2019-03-03T17:18:58.341Z,14.83
2019-03-03T17:21:27.779Z,12.53
2019-03-03T17:23:57.208Z,14.90
2019-03-03T17:26:26.679Z,14.40
2019-03-03T17:28:56.112Z,13.77
2019-03-03T17:31:25.511Z,12.30
2019-03-03T17:33:55.001Z,11.30
2019-03-03T17:36:24.406Z,14.23
2019-03-03T17:38:53.851Z,12.50
2019-03-03T17:41:23.361Z,16.60
2019-03-03T17:43:52.811Z,11.73
2019-03-03T17:46:22.244Z,12.23
2019-03-03T17:48:51.718Z,14.47
2019-03-03T17:51:21.181Z,13.70
2019-03-03T17:53:50.631Z,16.33
2019-03-03T17:56:20.040Z,13.13
2019-03-03T17:58:49.497Z,14.70
2019-03-03T18:01:18.935Z,13.40
2019-03-03T18:03:48.507Z,12.30
2019-03-03T18:06:18.002Z,12.13
2019-03-03T18:08:47.461Z,14.70
2019-03-03T18:11:16.920Z,16.10
2019-03-03T18:13:46.417Z,17.07
2019-03-03T18:16:15.840Z,15.87
2019-03-03T18:18:45.273Z,14.20
2019-03-03T18:21:14.692Z,17.30
2019-03-03T18:23:44.120Z,13.13
2019-03-03T18:26:13.554Z,12.43
2019-03-03T18:28:43.007Z,12.77
2019-03-03T18:31:12.457Z,12.60
2019-03-03T18:33:42.026Z,13.47
2019-03-03T18:36:11.511Z,12.20
2019-03-03T18:38:40.958Z,15.27
2019-03-03T18:41:10.381Z,11.07
2019-03-03T18:43:39.977Z,16.43
2019-03-03T18:46:09.395Z,14.43
2019-03-03T18:48:58.526Z,12.00
2019-03-03T18:51:27.904Z,15.23
2019-03-03T18:53:57.430Z,14.20
2019-03-03T18:56:26.929Z,14.60
2019-03-03T18:58:56.438Z,11.30
2019-03-03T19:01:25.849Z,17.47
2019-03-03T19:03:55.266Z,14.73
2019-03-03T19:06:24.737Z,11.83
2019-03-03T19:08:54.222Z,17.00
2019-03-03T19:11:23.649Z,13.20
2019-03-03T19:13:53.070Z,12.60
2019-03-03T19:16:22.495Z,12.83
2019-03-03T19:18:51.908Z,13.23
2019-03-03T19:21:21.348Z,14.07
2019-03-03T19:23:50.896Z,10.50
2019-03-03T19:26:20.289Z,14.33
2019-03-03T19:28:49.709Z,14.63
2019-03-03T19:31:20.887Z,12.50
2019-03-03T19:33:53.314Z,14.73
2019-03-03T19:36:23.101Z,11.43
2019-03-03T19:38:52.540Z,15.17
2019-03-03T19:41:21.994Z,15.13
2019-03-03T19:43:57.071Z,14.00
2019-03-03T19:46:26.538Z,9.37
2019-03-03T19:48:55.977Z,12.07
2019-03-03T19:51:25.715Z,15.97
2019-03-03T19:53:55.211Z,13.10
2019-03-03T19:56:24.660Z,16.63
2019-03-03T19:58:54.105Z,16.00
2019-03-03T20:01:23.497Z,10.97
2019-03-03T20:03:52.949Z,13.43
2019-03-03T20:06:22.336Z,13.53
2019-03-03T20:08:53.564Z,12.27
2019-03-03T20:11:22.991Z,14.20
2019-03-03T20:13:52.516Z,10.27
2019-03-03T20:16:21.942Z,9.43
2019-03-03T20:18:51.356Z,9.77
2019-03-03T20:21:20.789Z,10.57
2019-03-03T20:23:50.202Z,14.97
2019-03-03T20:26:20.976Z,15.00
2019-03-03T20:28:50.775Z,9.33
2019-03-03T20:31:20.307Z,9.67
2019-03-03T20:33:49.785Z,10.93
2019-03-03T20:36:19.173Z,9.10
2019-03-03T20:38:48.622Z,10.67
2019-03-03T20:41:18.072Z,8.10
2019-03-03T20:43:47.522Z,7.47
2019-03-03T20:46:16.983Z,7.63
2019-03-03T20:48:46.438Z,9.83
2019-03-03T20:51:15.879Z,7.27
2019-03-03T20:53:46.750Z,6.77
2019-03-03T20:56:16.142Z,6.73
2019-03-03T20:58:45.590Z,6.27
2019-03-03T21:01:15.616Z,9.43
2019-03-03T21:03:45.071Z,9.27
2019-03-03T21:06:14.553Z,6.57
2019-03-03T21:08:44.022Z,7.70
2019-03-03T21:11:13.454Z,6.97
2019-03-03T21:13:43.031Z,5.83
2019-03-03T21:16:12.503Z,6.67
2019-03-03T21:18:41.929Z,6.20
2019-03-03T21:21:11.313Z,7.43
2019-03-03T21:23:40.796Z,7.47
2019-03-03T21:26:10.270Z,8.27
2019-03-03T21:28:39.733Z,9.30
2019-03-03T21:31:10.773Z,9.50
2019-03-03T21:33:40.330Z,6.80
2019-03-03T21:36:09.763Z,8.27
2019-03-03T21:38:39.222Z,7.27
2019-03-03T21:41:08.657Z,9.67
2019-03-03T21:43:38.559Z,10.37
2019-03-03T21:46:08.008Z,8.70
2019-03-03T21:48:37.435Z,7.47
2019-03-03T21:51:06.896Z,6.73
2019-03-03T21:53:36.352Z,10.80
2019-03-03T21:56:05.953Z,7.83
2019-03-03T21:58:35.416Z,8.67
2019-03-03T22:01:07.652Z,9.53
2019-03-03T22:03:36.658Z,7.50
2019-03-03T22:06:06.061Z,7.07
2019-03-03T22:08:35.493Z,7.37
2019-03-03T22:11:04.932Z,7.60
2019-03-03T22:13:34.349Z,8.27
2019-03-03T22:16:03.863Z,8.53
2019-03-03T22:18:33.350Z,10.43
2019-03-03T22:21:02.767Z,6.10
2019-03-03T22:23:32.223Z,7.17
2019-03-03T22:26:01.683Z,5.37
2019-03-03T22:28:31.102Z,5.63
2019-03-03T22:31:00.518Z,8.53
2019-03-03T22:33:29.980Z,6.87
2019-03-03T22:35:59.428Z,6.63
2019-03-03T22:38:48.249Z,8.17
2019-03-03T22:41:17.704Z,6.33
2019-03-03T22:43:47.199Z,7.60
2019-03-03T22:46:16.618Z,6.77
2019-03-03T22:48:46.170Z,6.53
2019-03-03T22:51:15.562Z,7.53
2019-03-03T22:53:45.002Z,8.53
2019-03-03T22:56:14.631Z,8.10
2019-03-03T22:58:44.149Z,8.10
2019-03-03T23:01:16.764Z,7.10
2019-03-03T23:03:49.347Z,8.30
2019-03-03T23:06:22.028Z,8.10
2019-03-03T23:11:58.311Z,6.90
2019-03-03T23:14:30.930Z,11.03
2019-03-03T23:17:03.878Z,6.03
2019-03-03T23:19:36.466Z,9.93
2019-03-03T23:22:09.387Z,7.00
2019-03-03T23:24:41.977Z,7.37
2019-03-03T23:27:11.413Z,9.40
2019-03-03T23:29:40.827Z,9.40
2019-03-03T23:32:10.252Z,9.27
2019-03-03T23:34:39.671Z,9.27
2019-03-03T23:37:09.158Z,6.73
2019-03-03T23:39:38.592Z,5.30
2019-03-03T23:42:08.059Z,8.37
2019-03-03T23:44:37.559Z,7.90
2019-03-03T23:47:06.978Z,5.97
2019-03-03T23:49:36.385Z,7.43
2019-03-03T23:52:05.885Z,7.50
2019-03-03T23:54:35.351Z,6.90
2019-03-03T23:57:05.000Z,5.50
2019-03-03T23:59:34.393Z,5.97
